Bosporus — V2QY — position and weather

sailwx.info

Track history (hours):
 
Tides and Currents Weather Stations Pressure Air Temp Water Temp Dewpoint Dewpoint Depression Visibility Wind Speed Wind Dir Waves Ship Positions

Bosporus

Last reported at 2014-Jul-29 20:10 UTC. Time now 2014-Jul-29 20:54 UTC.
Position N 40°51' E 001°27'.

Length 100 m; draft 5.7 m.

Type: Cargo ship. MMSI: 304010802.

Date/timePositionNaut miles runAvg speedWind from/ knotsBaromVisibWave heightAir tempDewpointWater temp
2014-Jul-29 20:10N 40°51' E 001°27'6 9.6
2014-Jul-29 19:32N 40°55' E 001°33'1010.1
2014-Jul-29 18:33N 41°00' E 001°45'1010.2
2014-Jul-29 17:33N 41°05' E 001°56'2410.0
2014-Jul-29 15:11N 41°19' E 002°22'710.2
2014-Jul-29 14:30N 41°24' E 002°29'3110.0
2014-Jul-29 11:26N 41°42' E 003°02'910.2
2014-Jul-29 10:32N 41°48' E 003°11'9 8.8
2014-Jul-29 09:34N 41°55' E 003°16'9 9.1
2014-Jul-29 08:33N 42°04' E 003°19'10 9.6
2014-Jul-29 07:33N 42°14' E 003°20'1210.6
2014-Jul-29 06:25N 42°26' E 003°20'910.6
2014-Jul-29 05:33N 42°35' E 003°19'1010.3
2014-Jul-29 04:33N 42°45' E 003°19'1010.5
2014-Jul-29 03:34N 42°56' E 003°19'8 7.7
2014-Jul-29 02:33N 42°59' E 003°29'9 8.6
2014-Jul-29 01:33N 43°01' E 003°40'9 8.9
2014-Jul-29 00:33N 43°04' E 003°52'10 9.5
2014-Jul-28 23:33N 43°07' E 004°04'1010.0
2014-Jul-28 22:33N 43°10' E 004°17'14 9.4
2014-Jul-28 21:06N 43°13' E 004°35'5 9.2
2014-Jul-28 20:31N 43°15' E 004°43'8 8.7
2014-Jul-28 19:33N 43°18' E 004°53'7 7.0
2014-Jul-28 18:33N 43°25' E 004°53'1 0.5
2014-Jul-28 17:31N 43°26' E 004°53'0 0.0
2014-Jul-28 16:31N 43°26' E 004°53'0 0.0
2014-Jul-28 15:31N 43°26' E 004°53'0 0.0
2014-Jul-28 14:31N 43°26' E 004°53'0 0.0
2014-Jul-28 13:31N 43°26' E 004°53'0 0.0
2014-Jul-28 12:22N 43°26' E 004°53'0 0.0
2014-Jul-28 11:31N 43°26' E 004°53'0 0.0
2014-Jul-28 10:31N 43°26' E 004°53'0 0.0
2014-Jul-28 09:31N 43°26' E 004°53'0 0.0
2014-Jul-28 08:28N 43°26' E 004°53'0 0.0
2014-Jul-28 07:31N 43°26' E 004°53'0 0.0
2014-Jul-28 06:22N 43°26' E 004°53'0 0.0
2014-Jul-28 05:31N 43°26' E 004°53'0 0.0
2014-Jul-28 04:31N 43°26' E 004°53'0 0.0
2014-Jul-28 03:31N 43°26' E 004°53'0 0.0
2014-Jul-28 02:31N 43°26' E 004°53'3 3.1
2014-Jul-28 01:33N 43°24' E 004°57'0 0.1
2014-Jul-28 00:33N 43°24' E 004°57'0 0.0
2014-Jul-27 23:33N 43°24' E 004°57'0 0.0
2014-Jul-27 22:33N 43°24' E 004°57'0 0.0
2014-Jul-27 21:33N 43°24' E 004°57'0 0.0
2014-Jul-27 20:33N 43°24' E 004°57'0 0.0
2014-Jul-27 19:33N 43°24' E 004°57'0 0.0
2014-Jul-27 18:33N 43°24' E 004°57'0 0.0
2014-Jul-27 17:33N 43°24' E 004°57'0 0.0
2014-Jul-27 16:30N 43°24' E 004°57'0 0.0
2014-Jul-27 15:33N 43°24' E 004°57'0 0.0
2014-Jul-27 14:33N 43°24' E 004°57'0 0.0
2014-Jul-27 13:33N 43°24' E 004°57'0 0.0
2014-Jul-27 12:33N 43°24' E 004°57'0 0.0
2014-Jul-27 11:33N 43°24' E 004°57'0 0.0
2014-Jul-27 10:33N 43°24' E 004°57'0 0.0
2014-Jul-27 09:33N 43°24' E 004°57'0 0.0
2014-Jul-27 08:33N 43°24' E 004°57'0 0.0
2014-Jul-27 07:33N 43°24' E 004°57'0 0.0
2014-Jul-27 06:33N 43°24' E 004°57'0 0.0
2014-Jul-27 05:33N 43°24' E 004°57'0 0.0
2014-Jul-27 04:33N 43°24' E 004°57'0 0.0
2014-Jul-27 03:33N 43°24' E 004°57'0 0.0
2014-Jul-27 02:33N 43°24' E 004°57'0 0.0
2014-Jul-27 01:33N 43°24' E 004°57'1 1.1
2014-Jul-27 00:33N 43°23' E 004°58'8 7.6
2014-Jul-26 23:33N 43°16' E 004°53'1110.7
2014-Jul-26 22:33N 43°08' E 004°43'1211.0
2014-Jul-26 21:27N 42°59' E 004°33'5811.3
2014-Jul-26 16:21N 42°14' E 003°44'1311.1
2014-Jul-26 15:09N 42°04' E 003°32'610.4
2014-Jul-26 14:32N 41°60' E 003°26'1111.4
2014-Jul-26 13:33N 41°51' E 003°16'1110.9
2014-Jul-26 12:33N 41°43' E 003°06'1211.6
2014-Jul-26 11:33N 41°36' E 002°54'2711.8
2014-Jul-26 09:17N 41°18' E 002°27'910.7
2014-Jul-26 08:26N 41°12' E 002°18'1011.0
2014-Jul-26 07:32N 41°06' E 002°08'1110.9
2014-Jul-26 06:33N 40°58' E 001°58'1610.6
2014-Jul-26 05:03N 40°48' E 001°42'510.6
2014-Jul-26 04:33N 40°44' E 001°37'1110.7
2014-Jul-26 03:31N 40°37' E 001°26'1311.0
2014-Jul-26 02:20N 40°29' E 001°12'810.0
2014-Jul-26 01:33N 40°24' E 001°04'1310.8
2014-Jul-26 00:23N 40°16' E 000°52'910.5
2014-Jul-25 23:33N 40°11' E 000°43'1110.5
2014-Jul-25 22:30N 40°04' E 000°32'42 4.1
2014-Jul-25 12:16N 39°39' W 000°13'43 8.6
2014-Jul-25 07:14N 40°04' E 000°33'1010.3
2014-Jul-25 06:12N 40°11' E 000°43'1010.3
2014-Jul-25 05:13N 40°17' E 000°54'710.0
2014-Jul-25 04:33N 40°22' E 001°00'1010.3
2014-Jul-25 03:33N 40°28' E 001°11'1010.0
2014-Jul-25 02:33N 40°35' E 001°21'1010.2
2014-Jul-25 01:33N 40°41' E 001°31'1010.3
2014-Jul-25 00:33N 40°48' E 001°42'1010.2
2014-Jul-24 23:33N 40°55' E 001°52'1010.2
2014-Jul-24 22:33N 41°02' E 002°02'1210.1
2014-Jul-24 21:25N 41°09' E 002°13'910.1
2014-Jul-24 20:33N 41°15' E 002°22'1010.0
2014-Jul-24 19:33N 41°21' E 002°32'10 9.8
2014-Jul-24 18:32N 41°28' E 002°42'9 9.5
2014-Jul-24 17:33N 41°34' E 002°51'10 9.8
2014-Jul-24 16:32N 41°41' E 003°01'1010.4
2014-Jul-24 15:33N 41°48' E 003°11'10 9.8
2014-Jul-24 14:33N 41°55' E 003°21'1610.7
2014-Jul-24 13:05N 42°07' E 003°34'1010.7
2014-Jul-24 12:11N 42°14' E 003°42'6 9.4
2014-Jul-24 11:32N 42°19' E 003°48'1010.0
2014-Jul-24 10:31N 42°27' E 003°56'1110.0
2014-Jul-24 09:28N 42°35' E 004°06'910.2
2014-Jul-24 08:33N 42°42' E 004°14'1010.1
2014-Jul-24 07:32N 42°50' E 004°22'1010.0
2014-Jul-24 06:32N 42°58' E 004°31'1110.6
2014-Jul-24 05:28N 43°06' E 004°41'9 9.3
2014-Jul-24 04:29N 43°13' E 004°50'9 9.6
2014-Jul-24 03:33N 43°21' E 004°56'5 5.0
2014-Jul-24 02:31N 43°26' E 004°53'0 0.0
2014-Jul-24 01:31N 43°26' E 004°53'0 0.0
2014-Jul-24 00:22N 43°26' E 004°53'0 0.0
2014-Jul-23 23:31N 43°26' E 004°53'0 0.0
2014-Jul-23 22:31N 43°26' E 004°53'0 0.0
2014-Jul-23 21:31N 43°26' E 004°53'0 0.0
2014-Jul-23 20:28N 43°26' E 004°53'0 0.0
2014-Jul-23 19:31N 43°26' E 004°53'0 0.0
2014-Jul-23 18:31N 43°26' E 004°53'0 0.0
2014-Jul-23 17:31N 43°26' E 004°53'0 0.0
2014-Jul-23 16:28N 43°26' E 004°53'0 0.0
2014-Jul-23 15:31N 43°26' E 004°53'0 0.0
2014-Jul-23 14:28N 43°26' E 004°53'0 0.0
2014-Jul-23 13:31N 43°26' E 004°53'0 0.0
2014-Jul-23 12:31N 43°26' E 004°53'0 0.0
2014-Jul-23 11:31N 43°26' E 004°53'0 0.0
2014-Jul-23 10:31N 43°26' E 004°53'0 0.0
2014-Jul-23 09:31N 43°26' E 004°53'0 0.0
2014-Jul-23 08:31N 43°26' E 004°53'0 0.0
2014-Jul-23 07:31N 43°26' E 004°53'0 0.0
2014-Jul-23 06:31N 43°26' E 004°53'5 5.6
2014-Jul-23 05:33N 43°22' E 004°58'7 6.5
2014-Jul-23 04:33N 43°17' E 004°52'9 8.8
2014-Jul-23 03:33N 43°14' E 004°41'19 8.9
2014-Jul-23 01:26N 43°09' E 004°16'1111.0
2014-Jul-23 00:27N 43°06' E 004°01'1111.0
2014-Jul-22 23:29N 43°03' E 003°48'1010.6
2014-Jul-22 22:30N 43°00' E 003°34'4010.1
2014-Jul-22 18:32N 42°21' E 003°22'1010.4
2014-Jul-22 17:33N 42°11' E 003°20'2410.6
2014-Jul-22 15:18N 41°48' E 003°13'810.7
2014-Jul-22 14:32N 41°43' E 003°05'1111.7
2014-Jul-22 13:33N 41°35' E 002°53'1311.4
2014-Jul-22 12:26N 41°27' E 002°40'1111.4
2014-Jul-22 11:28N 41°19' E 002°30'3010.1
2014-Jul-22 08:33N 40°60' E 001°60'1110.3
2014-Jul-22 07:29N 40°53' E 001°49'1010.1
2014-Jul-22 06:31N 40°46' E 001°39'1010.1
2014-Jul-22 05:33N 40°40' E 001°30'10 9.9
2014-Jul-22 04:33N 40°33' E 001°20'11 9.8
2014-Jul-22 03:24N 40°26' E 001°08'2110.3
2014-Jul-22 01:24N 40°13' E 000°47'910.4
2014-Jul-22 00:33N 40°08' E 000°38'1010.5
2014-Jul-21 23:33N 40°01' E 000°28'38 2.5
2014-Jul-21 08:33N 39°39' W 000°13'78 9.4
2014-Jul-21 00:15N 40°37' E 000°55'17 9.5
2014-Jul-20 22:29N 40°47' E 001°13'8 8.8
2014-Jul-20 21:33N 40°51' E 001°22'9 9.3
2014-Jul-20 20:33N 40°56' E 001°33'9 9.1
2014-Jul-20 19:33N 41°01' E 001°43'11 8.8
2014-Jul-20 18:16N 41°07' E 001°56'6 8.9
2014-Jul-20 17:33N 41°10' E 002°03'9 8.7
2014-Jul-20 16:33N 41°15' E 002°13'9 9.0
2014-Jul-20 15:33N 41°20' E 002°23'9 9.2
2014-Jul-20 14:33N 41°26' E 002°33'9 8.9
2014-Jul-20 13:32N 41°31' E 002°42'9 8.9
2014-Jul-20 12:33N 41°36' E 002°52'28 9.4
2014-Jul-20 09:33N 41°57' E 003°17'2010.1
2014-Jul-20 07:33N 42°17' E 003°21'10 9.6
2014-Jul-20 06:33N 42°27' E 003°24'1410.5
2014-Jul-20 05:12N 42°40' E 003°28'910.2
2014-Jul-20 04:21N 42°49' E 003°30'8 9.1
2014-Jul-20 03:27N 42°54' E 003°39'9 9.7
2014-Jul-20 02:33N 42°58' E 003°50'9 8.9
2014-Jul-20 01:33N 43°03' E 003°59'9 8.7
2014-Jul-20 00:33N 43°08' E 004°09'9 9.1
2014-Jul-19 23:33N 43°10' E 004°22'9 8.7
2014-Jul-19 22:33N 43°13' E 004°33'9 8.5
2014-Jul-19 21:33N 43°15' E 004°44'8 8.1
2014-Jul-19 20:34N 43°18' E 004°54'  
Track history (hours):
 
Tides and Currents Weather Stations Pressure Air Temp Water Temp Dewpoint Dewpoint Depression Visibility Wind Speed Wind Dir Waves Ship Positions

Bosporus

Last reported at 2014-Jul-29 20:10 UTC. Time now 2014-Jul-29 20:54 UTC.
Position N 40°51' E 001°27'.

Length 100 m; draft 5.7 m.

Type: Cargo ship. MMSI: 304010802.

Date/timePositionNaut miles runAvg speedWind from/ knotsBaromVisibWave heightAir tempDewpointWater temp
2014-Jul-29 20:10N 40°51' E 001°27'6 9.6
2014-Jul-29 19:32N 40°55' E 001°33'1010.1
2014-Jul-29 18:33N 41°00' E 001°45'1010.2
2014-Jul-29 17:33N 41°05' E 001°56'2410.0
2014-Jul-29 15:11N 41°19' E 002°22'710.2
2014-Jul-29 14:30N 41°24' E 002°29'3110.0
2014-Jul-29 11:26N 41°42' E 003°02'910.2
2014-Jul-29 10:32N 41°48' E 003°11'9 8.8
2014-Jul-29 09:34N 41°55' E 003°16'9 9.1
2014-Jul-29 08:33N 42°04' E 003°19'10 9.6
2014-Jul-29 07:33N 42°14' E 003°20'1210.6
2014-Jul-29 06:25N 42°26' E 003°20'910.6
2014-Jul-29 05:33N 42°35' E 003°19'1010.3
2014-Jul-29 04:33N 42°45' E 003°19'1010.5
2014-Jul-29 03:34N 42°56' E 003°19'8 7.7
2014-Jul-29 02:33N 42°59' E 003°29'9 8.6
2014-Jul-29 01:33N 43°01' E 003°40'9 8.9
2014-Jul-29 00:33N 43°04' E 003°52'10 9.5
2014-Jul-28 23:33N 43°07' E 004°04'1010.0
2014-Jul-28 22:33N 43°10' E 004°17'14 9.4
2014-Jul-28 21:06N 43°13' E 004°35'5 9.2
2014-Jul-28 20:31N 43°15' E 004°43'8 8.7
2014-Jul-28 19:33N 43°18' E 004°53'7 7.0
2014-Jul-28 18:33N 43°25' E 004°53'1 0.5
2014-Jul-28 17:31N 43°26' E 004°53'0 0.0
2014-Jul-28 16:31N 43°26' E 004°53'0 0.0
2014-Jul-28 15:31N 43°26' E 004°53'0 0.0
2014-Jul-28 14:31N 43°26' E 004°53'0 0.0
2014-Jul-28 13:31N 43°26' E 004°53'0 0.0
2014-Jul-28 12:22N 43°26' E 004°53'0 0.0
2014-Jul-28 11:31N 43°26' E 004°53'0 0.0
2014-Jul-28 10:31N 43°26' E 004°53'0 0.0
2014-Jul-28 09:31N 43°26' E 004°53'0 0.0
2014-Jul-28 08:28N 43°26' E 004°53'0 0.0
2014-Jul-28 07:31N 43°26' E 004°53'0 0.0
2014-Jul-28 06:22N 43°26' E 004°53'0 0.0
2014-Jul-28 05:31N 43°26' E 004°53'0 0.0
2014-Jul-28 04:31N 43°26' E 004°53'0 0.0
2014-Jul-28 03:31N 43°26' E 004°53'0 0.0
2014-Jul-28 02:31N 43°26' E 004°53'3 3.1
2014-Jul-28 01:33N 43°24' E 004°57'0 0.1
2014-Jul-28 00:33N 43°24' E 004°57'0 0.0
2014-Jul-27 23:33N 43°24' E 004°57'0 0.0
2014-Jul-27 22:33N 43°24' E 004°57'0 0.0
2014-Jul-27 21:33N 43°24' E 004°57'0 0.0
2014-Jul-27 20:33N 43°24' E 004°57'0 0.0
2014-Jul-27 19:33N 43°24' E 004°57'0 0.0
2014-Jul-27 18:33N 43°24' E 004°57'0 0.0
2014-Jul-27 17:33N 43°24' E 004°57'0 0.0
2014-Jul-27 16:30N 43°24' E 004°57'0 0.0
2014-Jul-27 15:33N 43°24' E 004°57'0 0.0
2014-Jul-27 14:33N 43°24' E 004°57'0 0.0
2014-Jul-27 13:33N 43°24' E 004°57'0 0.0
2014-Jul-27 12:33N 43°24' E 004°57'0 0.0
2014-Jul-27 11:33N 43°24' E 004°57'0 0.0
2014-Jul-27 10:33N 43°24' E 004°57'0 0.0
2014-Jul-27 09:33N 43°24' E 004°57'0 0.0
2014-Jul-27 08:33N 43°24' E 004°57'0 0.0
2014-Jul-27 07:33N 43°24' E 004°57'0 0.0
2014-Jul-27 06:33N 43°24' E 004°57'0 0.0
2014-Jul-27 05:33N 43°24' E 004°57'0 0.0
2014-Jul-27 04:33N 43°24' E 004°57'0 0.0
2014-Jul-27 03:33N 43°24' E 004°57'0 0.0
2014-Jul-27 02:33N 43°24' E 004°57'0 0.0
2014-Jul-27 01:33N 43°24' E 004°57'1 1.1
2014-Jul-27 00:33N 43°23' E 004°58'8 7.6
2014-Jul-26 23:33N 43°16' E 004°53'1110.7
2014-Jul-26 22:33N 43°08' E 004°43'1211.0
2014-Jul-26 21:27N 42°59' E 004°33'5811.3
2014-Jul-26 16:21N 42°14' E 003°44'1311.1
2014-Jul-26 15:09N 42°04' E 003°32'610.4
2014-Jul-26 14:32N 41°60' E 003°26'1111.4
2014-Jul-26 13:33N 41°51' E 003°16'1110.9
2014-Jul-26 12:33N 41°43' E 003°06'1211.6
2014-Jul-26 11:33N 41°36' E 002°54'2711.8
2014-Jul-26 09:17N 41°18' E 002°27'910.7
2014-Jul-26 08:26N 41°12' E 002°18'1011.0
2014-Jul-26 07:32N 41°06' E 002°08'1110.9
2014-Jul-26 06:33N 40°58' E 001°58'1610.6
2014-Jul-26 05:03N 40°48' E 001°42'510.6
2014-Jul-26 04:33N 40°44' E 001°37'1110.7
2014-Jul-26 03:31N 40°37' E 001°26'1311.0
2014-Jul-26 02:20N 40°29' E 001°12'810.0
2014-Jul-26 01:33N 40°24' E 001°04'1310.8
2014-Jul-26 00:23N 40°16' E 000°52'910.5
2014-Jul-25 23:33N 40°11' E 000°43'1110.5
2014-Jul-25 22:30N 40°04' E 000°32'42 4.1
2014-Jul-25 12:16N 39°39' W 000°13'43 8.6
2014-Jul-25 07:14N 40°04' E 000°33'1010.3
2014-Jul-25 06:12N 40°11' E 000°43'1010.3
2014-Jul-25 05:13N 40°17' E 000°54'710.0
2014-Jul-25 04:33N 40°22' E 001°00'1010.3
2014-Jul-25 03:33N 40°28' E 001°11'1010.0
2014-Jul-25 02:33N 40°35' E 001°21'1010.2
2014-Jul-25 01:33N 40°41' E 001°31'1010.3
2014-Jul-25 00:33N 40°48' E 001°42'1010.2
2014-Jul-24 23:33N 40°55' E 001°52'1010.2
2014-Jul-24 22:33N 41°02' E 002°02'1210.1
2014-Jul-24 21:25N 41°09' E 002°13'910.1
2014-Jul-24 20:33N 41°15' E 002°22'1010.0
2014-Jul-24 19:33N 41°21' E 002°32'10 9.8
2014-Jul-24 18:32N 41°28' E 002°42'9 9.5
2014-Jul-24 17:33N 41°34' E 002°51'10 9.8
2014-Jul-24 16:32N 41°41' E 003°01'1010.4
2014-Jul-24 15:33N 41°48' E 003°11'10 9.8
2014-Jul-24 14:33N 41°55' E 003°21'1610.7
2014-Jul-24 13:05N 42°07' E 003°34'1010.7
2014-Jul-24 12:11N 42°14' E 003°42'6 9.4
2014-Jul-24 11:32N 42°19' E 003°48'1010.0
2014-Jul-24 10:31N 42°27' E 003°56'1110.0
2014-Jul-24 09:28N 42°35' E 004°06'910.2
2014-Jul-24 08:33N 42°42' E 004°14'1010.1
2014-Jul-24 07:32N 42°50' E 004°22'1010.0
2014-Jul-24 06:32N 42°58' E 004°31'1110.6
2014-Jul-24 05:28N 43°06' E 004°41'9 9.3
2014-Jul-24 04:29N 43°13' E 004°50'9 9.6
2014-Jul-24 03:33N 43°21' E 004°56'5 5.0
2014-Jul-24 02:31N 43°26' E 004°53'0 0.0
2014-Jul-24 01:31N 43°26' E 004°53'0 0.0
2014-Jul-24 00:22N 43°26' E 004°53'0 0.0
2014-Jul-23 23:31N 43°26' E 004°53'0 0.0
2014-Jul-23 22:31N 43°26' E 004°53'0 0.0
2014-Jul-23 21:31N 43°26' E 004°53'0 0.0
2014-Jul-23 20:28N 43°26' E 004°53'0 0.0
2014-Jul-23 19:31N 43°26' E 004°53'0 0.0
2014-Jul-23 18:31N 43°26' E 004°53'0 0.0
2014-Jul-23 17:31N 43°26' E 004°53'0 0.0
2014-Jul-23 16:28N 43°26' E 004°53'0 0.0
2014-Jul-23 15:31N 43°26' E 004°53'0 0.0
2014-Jul-23 14:28N 43°26' E 004°53'0 0.0
2014-Jul-23 13:31N 43°26' E 004°53'0 0.0
2014-Jul-23 12:31N 43°26' E 004°53'0 0.0
2014-Jul-23 11:31N 43°26' E 004°53'0 0.0
2014-Jul-23 10:31N 43°26' E 004°53'0 0.0
2014-Jul-23 09:31N 43°26' E 004°53'0 0.0
2014-Jul-23 08:31N 43°26' E 004°53'0 0.0
2014-Jul-23 07:31N 43°26' E 004°53'0 0.0
2014-Jul-23 06:31N 43°26' E 004°53'5 5.6
2014-Jul-23 05:33N 43°22' E 004°58'7 6.5
2014-Jul-23 04:33N 43°17' E 004°52'9 8.8
2014-Jul-23 03:33N 43°14' E 004°41'19 8.9
2014-Jul-23 01:26N 43°09' E 004°16'1111.0
2014-Jul-23 00:27N 43°06' E 004°01'1111.0
2014-Jul-22 23:29N 43°03' E 003°48'1010.6
2014-Jul-22 22:30N 43°00' E 003°34'4010.1
2014-Jul-22 18:32N 42°21' E 003°22'1010.4
2014-Jul-22 17:33N 42°11' E 003°20'2410.6
2014-Jul-22 15:18N 41°48' E 003°13'810.7
2014-Jul-22 14:32N 41°43' E 003°05'1111.7
2014-Jul-22 13:33N 41°35' E 002°53'1311.4
2014-Jul-22 12:26N 41°27' E 002°40'1111.4
2014-Jul-22 11:28N 41°19' E 002°30'3010.1
2014-Jul-22 08:33N 40°60' E 001°60'1110.3
2014-Jul-22 07:29N 40°53' E 001°49'1010.1
2014-Jul-22 06:31N 40°46' E 001°39'1010.1
2014-Jul-22 05:33N 40°40' E 001°30'10 9.9
2014-Jul-22 04:33N 40°33' E 001°20'11 9.8
2014-Jul-22 03:24N 40°26' E 001°08'2110.3
2014-Jul-22 01:24N 40°13' E 000°47'910.4
2014-Jul-22 00:33N 40°08' E 000°38'1010.5
2014-Jul-21 23:33N 40°01' E 000°28'38 2.5
2014-Jul-21 08:33N 39°39' W 000°13'78 9.4
2014-Jul-21 00:15N 40°37' E 000°55'17 9.5
2014-Jul-20 22:29N 40°47' E 001°13'8 8.8
2014-Jul-20 21:33N 40°51' E 001°22'9 9.3
2014-Jul-20 20:33N 40°56' E 001°33'9 9.1
2014-Jul-20 19:33N 41°01' E 001°43'11 8.8
2014-Jul-20 18:16N 41°07' E 001°56'6 8.9
2014-Jul-20 17:33N 41°10' E 002°03'9 8.7
2014-Jul-20 16:33N 41°15' E 002°13'9 9.0
2014-Jul-20 15:33N 41°20' E 002°23'9 9.2
2014-Jul-20 14:33N 41°26' E 002°33'9 8.9
2014-Jul-20 13:32N 41°31' E 002°42'9 8.9
2014-Jul-20 12:33N 41°36' E 002°52'28 9.4
2014-Jul-20 09:33N 41°57' E 003°17'2010.1
2014-Jul-20 07:33N 42°17' E 003°21'10 9.6
2014-Jul-20 06:33N 42°27' E 003°24'1410.5
2014-Jul-20 05:12N 42°40' E 003°28'910.2
2014-Jul-20 04:21N 42°49' E 003°30'8 9.1
2014-Jul-20 03:27N 42°54' E 003°39'9 9.7
2014-Jul-20 02:33N 42°58' E 003°50'9 8.9
2014-Jul-20 01:33N 43°03' E 003°59'9 8.7
2014-Jul-20 00:33N 43°08' E 004°09'9 9.1
2014-Jul-19 23:33N 43°10' E 004°22'9 8.7
2014-Jul-19 22:33N 43°13' E 004°33'9 8.5
2014-Jul-19 21:33N 43°15' E 004°44'8 8.1
2014-Jul-19 20:34N 43°18' E 004°54'  

Dump ship's entire track history